createdAt,value
2022-07-26T00:00:28.840Z,99376.37
2022-07-26T00:02:56.647Z,99376.84
2022-07-26T00:05:26.744Z,99384.67
2022-07-26T00:08:09.884Z,99386.96
2022-07-26T00:10:40.580Z,99381.67
2022-07-26T00:13:08.905Z,99375.42
2022-07-26T00:15:37.518Z,99374.65
2022-07-26T00:18:12.102Z,99374.50
2022-07-26T00:20:41.459Z,99368.40
2022-07-26T00:23:10.250Z,99360.45
2022-07-26T00:25:38.989Z,99365.36
2022-07-26T00:28:07.582Z,99355.10
2022-07-26T00:30:37.877Z,99352.69
2022-07-26T00:33:08.806Z,99342.81
2022-07-26T00:35:38.122Z,99343.16
2022-07-26T00:38:07.206Z,99339.86
2022-07-26T00:40:36.827Z,99340.98
2022-07-26T00:43:04.994Z,99349.19
2022-07-26T00:45:32.948Z,99351.83
2022-07-26T00:48:00.950Z,99348.71
2022-07-26T00:50:29.584Z,99338.73
2022-07-26T00:52:57.750Z,99344.06
2022-07-26T00:55:25.769Z,99343.59
2022-07-26T00:57:53.816Z,99343.38
2022-07-26T01:00:25.820Z,99350.02
2022-07-26T01:02:55.088Z,99351.00
2022-07-26T01:05:24.305Z,99346.64
2022-07-26T01:07:52.478Z,99355.33
2022-07-26T01:10:20.746Z,99356.73
2022-07-26T01:12:48.551Z,99359.67
2022-07-26T01:15:17.308Z,99356.17
2022-07-26T01:17:45.713Z,99359.80
2022-07-26T01:20:14.377Z,99362.79
2022-07-26T01:22:42.986Z,99371.35
2022-07-26T01:25:11.219Z,99372.02
2022-07-26T01:27:39.013Z,99358.36
2022-07-26T01:30:10.650Z,99350.98
2022-07-26T01:32:38.725Z,99345.00
2022-07-26T01:35:09.004Z,99347.95
2022-07-26T01:37:36.565Z,99358.10
2022-07-26T01:40:05.674Z,99366.46
2022-07-26T01:42:34.805Z,99368.02
2022-07-26T01:45:02.900Z,99370.46
2022-07-26T01:47:32.089Z,99369.06
2022-07-26T01:50:00.160Z,99366.50
2022-07-26T01:52:27.850Z,99363.63
2022-07-26T01:54:55.516Z,99363.39
2022-07-26T01:57:25.292Z,99372.71
2022-07-26T01:59:52.841Z,99375.59
2022-07-26T02:02:20.586Z,99386.91
2022-07-26T02:05:01.430Z,99385.64
2022-07-26T02:07:31.628Z,99396.64
2022-07-26T02:10:01.624Z,99399.63
2022-07-26T02:12:29.583Z,99392.50
2022-07-26T02:14:57.418Z,99386.84
2022-07-26T02:17:25.489Z,99403.06
2022-07-26T02:19:53.219Z,99414.63
2022-07-26T02:22:20.934Z,99446.88
2022-07-26T02:24:48.978Z,99448.88
2022-07-26T02:27:17.347Z,99455.77
2022-07-26T02:29:45.026Z,99449.94
2022-07-26T02:32:13.453Z,99425.45
2022-07-26T02:34:41.050Z,99420.75
2022-07-26T02:37:09.401Z,99422.46
2022-07-26T02:39:37.145Z,99440.61
2022-07-26T02:42:04.960Z,99448.10
2022-07-26T02:44:34.261Z,99474.90
2022-07-26T02:47:01.840Z,99484.83
2022-07-26T02:49:29.630Z,99494.10
2022-07-26T02:51:57.240Z,99498.32
2022-07-26T02:54:24.828Z,99506.63
2022-07-26T02:56:52.555Z,99515.17
2022-07-26T02:59:20.107Z,99525.70
2022-07-26T03:01:47.974Z,99525.58
2022-07-26T03:04:15.625Z,99523.75
2022-07-26T03:06:43.833Z,99526.64
2022-07-26T03:09:11.500Z,99532.44
2022-07-26T03:11:39.159Z,99540.26
2022-07-26T03:14:09.016Z,99543.58
2022-07-26T03:16:37.469Z,99544.04
2022-07-26T03:19:05.099Z,99546.45
2022-07-26T03:21:32.791Z,99548.65
2022-07-26T03:24:00.357Z,99552.95
2022-07-26T03:26:28.634Z,99555.92
2022-07-26T03:28:56.225Z,99560.39
2022-07-26T03:31:25.114Z,99559.80
2022-07-26T03:33:52.709Z,99557.05
2022-07-26T03:36:20.386Z,99565.05
2022-07-26T03:38:48.049Z,99570.13
2022-07-26T03:41:15.632Z,99575.72
2022-07-26T03:43:43.224Z,99583.52
2022-07-26T03:46:11.227Z,99589.42
2022-07-26T03:48:39.020Z,99598.45
2022-07-26T03:51:07.283Z,99605.30
2022-07-26T03:53:34.866Z,99606.73
2022-07-26T03:56:21.242Z,99619.13
2022-07-26T03:58:48.806Z,99628.29
2022-07-26T04:01:16.452Z,99630.23
2022-07-26T04:03:47.569Z,99626.21
2022-07-26T04:06:16.057Z,99627.35
2022-07-26T04:08:43.941Z,99621.14
2022-07-26T04:11:11.583Z,99619.31
2022-07-26T04:13:39.354Z,99628.67
2022-07-26T04:16:07.879Z,99632.63
2022-07-26T04:18:35.560Z,99638.81
2022-07-26T04:21:03.917Z,99637.00
2022-07-26T04:23:31.528Z,99640.13
2022-07-26T04:25:59.088Z,99645.89
2022-07-26T04:28:28.373Z,99659.33
2022-07-26T04:30:56.198Z,99665.64
2022-07-26T04:33:24.275Z,99668.37
2022-07-26T04:35:53.295Z,99665.30
2022-07-26T04:38:21.918Z,99663.75
2022-07-26T04:40:51.195Z,99666.96
2022-07-26T04:43:19.062Z,99675.54
2022-07-26T04:45:48.198Z,99678.39
2022-07-26T04:48:16.077Z,99682.05
2022-07-26T04:50:44.389Z,99692.49
2022-07-26T04:53:12.118Z,99697.79
2022-07-26T04:55:39.810Z,99703.95
2022-07-26T04:58:07.959Z,99711.13
2022-07-26T05:00:56.565Z,99708.67
2022-07-26T05:03:24.443Z,99708.67
2022-07-26T05:05:52.343Z,99711.45
2022-07-26T05:08:20.420Z,99714.00
2022-07-26T05:10:53.129Z,99716.92
2022-07-26T05:13:27.094Z,99721.63
2022-07-26T05:15:59.029Z,99720.61
2022-07-26T05:18:27.192Z,99718.55
2022-07-26T05:20:57.392Z,99721.06
2022-07-26T05:23:24.994Z,99723.95
2022-07-26T05:25:52.632Z,99735.63
2022-07-26T05:28:22.610Z,99737.52
2022-07-26T05:30:50.810Z,99732.47
2022-07-26T05:33:18.523Z,99737.13
2022-07-26T05:35:46.255Z,99740.40
2022-07-26T05:38:13.851Z,99739.84
2022-07-26T05:40:41.336Z,99740.27
2022-07-26T05:43:09.003Z,99740.79
2022-07-26T05:45:36.706Z,99744.42
2022-07-26T05:48:04.859Z,99753.38
2022-07-26T05:50:32.540Z,99759.88
2022-07-26T05:53:02.673Z,99757.23
2022-07-26T05:55:30.277Z,99764.45
2022-07-26T05:57:57.856Z,99770.36
2022-07-26T06:00:26.900Z,99774.58
2022-07-26T06:02:54.830Z,99777.16
2022-07-26T06:05:22.413Z,99788.45
2022-07-26T06:07:50.802Z,99793.41
2022-07-26T06:10:18.459Z,99795.09
2022-07-26T06:12:46.070Z,99798.66
2022-07-26T06:15:16.041Z,99807.14
2022-07-26T06:17:44.104Z,99808.95
2022-07-26T06:20:12.537Z,99805.46
2022-07-26T06:22:40.105Z,99807.27
2022-07-26T06:25:08.998Z,99808.02
2022-07-26T06:27:36.566Z,99813.52
2022-07-26T06:30:05.122Z,99813.96
2022-07-26T06:32:32.581Z,99813.27
2022-07-26T06:35:00.172Z,99813.46
2022-07-26T06:37:27.760Z,99813.40
2022-07-26T06:39:55.311Z,99822.39
2022-07-26T06:42:22.890Z,99824.88
2022-07-26T06:44:50.381Z,99824.38
2022-07-26T06:47:18.091Z,99821.48
2022-07-26T06:49:45.780Z,99827.41
2022-07-26T06:52:13.288Z,99832.50
2022-07-26T06:54:40.851Z,99834.08
2022-07-26T06:57:08.518Z,99835.52
2022-07-26T06:59:36.862Z,99836.11
2022-07-26T07:02:05.244Z,99842.25
2022-07-26T07:04:33.815Z,99852.16
2022-07-26T07:07:04.513Z,99854.33
2022-07-26T07:09:33.227Z,99858.76
2022-07-26T07:12:08.438Z,99864.63
2022-07-26T07:14:38.758Z,99869.58
2022-07-26T07:17:13.016Z,99875.59
2022-07-26T07:19:41.626Z,99879.03
2022-07-26T07:22:11.069Z,99888.77
2022-07-26T07:24:38.562Z,99888.88
2022-07-26T07:27:06.701Z,99886.52
2022-07-26T07:29:34.743Z,99884.76
2022-07-26T07:32:03.349Z,99889.17
2022-07-26T07:34:31.296Z,99890.63
2022-07-26T07:36:59.036Z,99891.16
2022-07-26T07:39:34.584Z,99890.07
2022-07-26T07:42:06.640Z,99896.34
2022-07-26T07:44:34.282Z,99899.78
2022-07-26T07:47:02.023Z,99901.00
2022-07-26T07:49:29.845Z,99896.80
2022-07-26T07:51:57.348Z,99893.73
2022-07-26T07:54:25.058Z,99895.65
2022-07-26T07:56:55.622Z,99895.73
2022-07-26T07:59:23.570Z,99896.86
2022-07-26T08:01:51.275Z,99899.00
2022-07-26T08:04:19.225Z,99901.46
2022-07-26T08:06:50.359Z,99901.80
2022-07-26T08:09:19.638Z,99899.25
2022-07-26T08:11:51.124Z,99891.88
2022-07-26T08:14:19.314Z,99891.96
2022-07-26T08:16:47.222Z,99896.27
2022-07-26T08:19:15.759Z,99902.67
2022-07-26T08:21:45.429Z,99906.51
2022-07-26T08:24:14.711Z,99905.27
2022-07-26T08:26:42.279Z,99907.90
2022-07-26T08:29:10.058Z,99908.60
2022-07-26T08:31:37.913Z,99913.63
2022-07-26T08:34:05.548Z,99910.45
2022-07-26T08:36:33.331Z,99915.98
2022-07-26T08:39:01.128Z,99915.80
2022-07-26T08:41:30.231Z,99913.96
2022-07-26T08:44:06.460Z,99917.72
2022-07-26T08:46:36.760Z,99922.84
2022-07-26T08:49:06.591Z,99918.64
2022-07-26T08:51:37.235Z,99919.54
2022-07-26T08:54:06.206Z,99917.73
2022-07-26T08:56:35.955Z,99917.86
2022-07-26T08:59:05.834Z,99923.64
2022-07-26T09:01:34.031Z,99923.88
2022-07-26T09:04:31.082Z,99928.94
2022-07-26T09:07:03.644Z,99931.76
2022-07-26T09:09:32.167Z,99933.54
2022-07-26T09:12:12.415Z,99934.45
2022-07-26T09:14:40.272Z,99933.81
2022-07-26T09:17:08.045Z,99937.05
2022-07-26T09:19:36.110Z,99944.00
2022-07-26T09:22:10.611Z,99943.20
2022-07-26T09:24:40.906Z,99940.59
2022-07-26T09:27:10.805Z,99940.29
2022-07-26T09:29:49.893Z,99938.62
2022-07-26T09:32:19.924Z,99942.48
2022-07-26T09:34:57.854Z,99938.70
2022-07-26T09:37:37.233Z,99939.83
2022-07-26T09:40:08.889Z,99942.55
2022-07-26T09:42:36.964Z,99944.04
2022-07-26T09:45:16.247Z,99948.89
2022-07-26T09:47:43.938Z,99953.33
2022-07-26T09:50:14.334Z,99954.55
2022-07-26T09:52:58.541Z,99955.82
2022-07-26T09:55:27.468Z,99950.60
2022-07-26T09:57:59.226Z,99956.29
2022-07-26T10:00:26.783Z,99959.05
2022-07-26T10:02:54.394Z,99958.05
2022-07-26T10:05:22.296Z,99961.63
2022-07-26T10:07:51.435Z,99959.77
2022-07-26T10:10:24.739Z,99963.89
2022-07-26T10:12:53.801Z,99962.90
2022-07-26T10:15:40.526Z,99965.66
2022-07-26T10:18:09.422Z,99965.08
2022-07-26T10:20:47.567Z,99965.41
2022-07-26T10:23:41.195Z,99962.16
2022-07-26T10:26:13.207Z,99962.12
2022-07-26T10:28:41.456Z,99961.02
2022-07-26T10:31:29.817Z,99963.83
2022-07-26T10:34:00.122Z,99969.02
2022-07-26T10:36:30.798Z,99962.66
2022-07-26T10:39:10.809Z,99963.08
2022-07-26T10:41:46.561Z,99966.14
2022-07-26T10:44:19.942Z,99962.53
2022-07-26T10:47:02.339Z,99964.50
2022-07-26T10:49:34.886Z,99962.29
2022-07-26T10:52:15.394Z,99959.55
2022-07-26T10:55:19.353Z,99958.26
2022-07-26T10:57:48.838Z,99959.94
2022-07-26T11:00:23.161Z,99959.16
2022-07-26T11:02:55.417Z,99959.42
2022-07-26T11:05:28.111Z,99965.73
2022-07-26T11:08:00.896Z,99967.83
2022-07-26T11:10:30.795Z,99968.37
2022-07-26T11:13:06.428Z,99964.52
2022-07-26T11:15:35.034Z,99971.25
2022-07-26T11:18:17.593Z,99969.58
2022-07-26T11:20:47.324Z,99972.36
2022-07-26T11:23:23.537Z,99974.41
2022-07-26T11:26:15.208Z,99972.60
2022-07-26T11:28:57.769Z,99975.33
2022-07-26T11:31:51.137Z,99972.40
2022-07-26T11:34:23.218Z,99976.66
2022-07-26T11:36:52.753Z,99977.46
2022-07-26T11:39:24.008Z,99974.05
2022-07-26T11:41:56.444Z,99973.68
2022-07-26T11:44:24.975Z,99972.19
2022-07-26T11:46:53.121Z,99969.20
2022-07-26T11:49:25.079Z,99966.18
2022-07-26T11:52:00.530Z,99965.50
2022-07-26T11:54:30.311Z,99961.30
2022-07-26T11:56:59.847Z,99960.81
2022-07-26T11:59:29.186Z,99959.07
2022-07-26T12:01:58.236Z,99962.65
2022-07-26T12:04:28.813Z,99966.63
2022-07-26T12:06:58.263Z,99966.75
2022-07-26T12:09:31.725Z,99963.58
2022-07-26T12:11:59.490Z,99960.55
2022-07-26T12:14:28.487Z,99958.92
2022-07-26T12:16:56.495Z,99957.10
2022-07-26T12:19:27.743Z,99962.98
2022-07-26T12:21:58.316Z,99962.59
2022-07-26T12:24:40.927Z,99960.95
2022-07-26T12:27:11.229Z,99953.57
2022-07-26T12:29:40.356Z,99950.85
2022-07-26T12:32:12.796Z,99953.91
2022-07-26T12:34:42.348Z,99951.38
2022-07-26T12:37:12.496Z,99947.03
2022-07-26T12:39:41.253Z,99949.39
2022-07-26T12:42:22.856Z,99949.74
2022-07-26T12:45:01.959Z,99947.69
2022-07-26T12:47:29.905Z,99949.77
2022-07-26T12:49:57.463Z,99946.94
2022-07-26T12:52:25.231Z,99947.91
2022-07-26T12:54:53.364Z,99952.40
2022-07-26T12:57:22.075Z,99945.51
2022-07-26T12:59:50.198Z,99941.37
2022-07-26T13:02:19.127Z,99942.10
2022-07-26T13:04:47.209Z,99943.06
2022-07-26T13:07:15.546Z,99943.89
2022-07-26T13:09:43.929Z,99941.48
2022-07-26T13:12:12.658Z,99940.52
2022-07-26T13:14:40.906Z,99942.20
2022-07-26T13:17:10.362Z,99942.42
2022-07-26T13:19:38.795Z,99942.89
2022-07-26T13:22:07.553Z,99944.80
2022-07-26T13:24:38.603Z,99952.48
2022-07-26T13:27:07.164Z,99958.59
2022-07-26T13:29:36.411Z,99960.39
2022-07-26T13:32:04.606Z,99959.44
2022-07-26T13:34:35.029Z,99961.52
2022-07-26T13:37:08.277Z,99959.88
2022-07-26T13:39:36.243Z,99959.66
2022-07-26T13:42:04.434Z,99962.08
2022-07-26T13:44:32.495Z,99963.81
2022-07-26T13:47:01.503Z,99964.02
2022-07-26T13:49:29.645Z,99968.14
2022-07-26T13:51:57.396Z,99967.81
2022-07-26T13:54:27.680Z,99961.70
2022-07-26T13:56:55.510Z,99967.27
2022-07-26T13:59:23.553Z,99963.77
2022-07-26T14:01:52.242Z,99967.92
2022-07-26T14:04:20.317Z,99963.92
2022-07-26T14:06:48.270Z,99964.95
2022-07-26T14:09:17.169Z,99961.50
2022-07-26T14:11:45.097Z,99958.69
2022-07-26T14:14:13.799Z,99953.61
2022-07-26T14:16:41.886Z,99951.36
2022-07-26T14:19:09.527Z,99945.20
2022-07-26T14:21:43.424Z,99940.72
2022-07-26T14:24:15.177Z,99931.04
2022-07-26T14:26:46.024Z,99933.95
2022-07-26T14:29:15.389Z,99933.80
2022-07-26T14:31:44.153Z,99931.52
2022-07-26T14:34:12.169Z,99929.70
2022-07-26T14:36:40.476Z,99926.61
2022-07-26T14:39:08.435Z,99920.09
2022-07-26T14:41:36.100Z,99918.00
2022-07-26T14:44:04.288Z,99920.48
2022-07-26T14:46:31.870Z,99916.21
2022-07-26T14:48:59.445Z,99914.48
2022-07-26T14:51:27.264Z,99911.79
2022-07-26T14:53:54.848Z,99919.80
2022-07-26T14:56:22.676Z,99920.46
2022-07-26T14:58:50.500Z,99922.01
2022-07-26T15:01:18.172Z,99918.17
2022-07-26T15:03:45.761Z,99917.87
2022-07-26T15:06:13.265Z,99914.16
2022-07-26T15:08:40.870Z,99912.77
2022-07-26T15:11:08.500Z,99910.30
2022-07-26T15:13:36.322Z,99911.19
2022-07-26T15:16:04.566Z,99912.70
2022-07-26T15:18:32.984Z,99917.98
2022-07-26T15:21:01.784Z,99916.58
2022-07-26T15:23:29.729Z,99918.08
2022-07-26T15:25:57.375Z,99914.05
2022-07-26T15:28:24.848Z,99918.84
2022-07-26T15:30:52.436Z,99917.24
2022-07-26T15:33:20.050Z,99919.39
2022-07-26T15:35:48.858Z,99913.16
2022-07-26T15:38:16.425Z,99914.39
2022-07-26T15:40:43.993Z,99910.57
2022-07-26T15:43:11.644Z,99906.17
2022-07-26T15:45:42.091Z,99912.80
2022-07-26T15:48:16.005Z,99913.04
2022-07-26T15:50:45.245Z,99905.11
2022-07-26T15:53:15.467Z,99906.61
2022-07-26T15:55:43.150Z,99904.64
2022-07-26T15:58:13.705Z,99906.60
2022-07-26T16:00:41.878Z,99903.56
2022-07-26T16:03:10.947Z,99902.22
2022-07-26T16:05:38.529Z,99907.47
2022-07-26T16:08:06.721Z,99904.48
2022-07-26T16:10:34.214Z,99902.09
2022-07-26T16:13:01.828Z,99905.67
2022-07-26T16:15:29.544Z,99903.16
2022-07-26T16:17:57.253Z,99899.84
2022-07-26T16:20:24.987Z,99895.20
2022-07-26T16:22:52.610Z,99898.23
2022-07-26T16:25:20.161Z,99898.45
2022-07-26T16:27:48.677Z,99895.80
2022-07-26T16:30:16.724Z,99896.61
2022-07-26T16:32:44.284Z,99898.77
2022-07-26T16:35:12.701Z,99905.91
2022-07-26T16:37:40.971Z,99902.73
2022-07-26T16:40:11.063Z,99901.05
2022-07-26T16:42:38.822Z,99900.07
2022-07-26T16:45:08.552Z,99898.70
2022-07-26T16:47:36.279Z,99903.00
2022-07-26T16:50:04.331Z,99907.01
2022-07-26T16:52:31.903Z,99900.66
2022-07-26T16:54:59.502Z,99900.08
2022-07-26T16:57:27.619Z,99902.42
2022-07-26T16:59:55.369Z,99903.13
2022-07-26T17:02:23.069Z,99904.16
2022-07-26T17:04:51.498Z,99900.34
2022-07-26T17:07:26.476Z,99902.05
2022-07-26T17:09:55.531Z,99901.63
2022-07-26T17:12:23.511Z,99901.98
2022-07-26T17:14:51.449Z,99909.67
2022-07-26T17:17:19.076Z,99910.27
2022-07-26T17:19:46.732Z,99909.92
2022-07-26T17:22:14.285Z,99912.25
2022-07-26T17:24:41.864Z,99918.11
2022-07-26T17:27:09.709Z,99921.77
2022-07-26T17:29:37.365Z,99926.19
2022-07-26T17:32:06.702Z,99927.21
2022-07-26T17:34:34.323Z,99929.48
2022-07-26T17:37:05.729Z,99928.11
2022-07-26T17:39:52.483Z,99928.45
2022-07-26T17:42:21.536Z,99931.73
2022-07-26T17:44:49.502Z,99933.73
2022-07-26T17:47:27.747Z,99935.90
2022-07-26T17:52:48.886Z,99937.02
2022-07-26T17:55:17.716Z,99935.33
2022-07-26T17:57:45.807Z,99937.95
2022-07-26T18:00:15.563Z,99939.11
2022-07-26T18:02:43.277Z,99942.04
2022-07-26T18:05:11.563Z,99944.15
2022-07-26T18:07:39.751Z,99943.72
2022-07-26T18:10:10.536Z,99948.39
2022-07-26T18:12:38.775Z,99951.73
2022-07-26T18:15:08.625Z,99948.04
2022-07-26T18:17:36.415Z,99950.66
2022-07-26T18:20:05.940Z,99949.95
2022-07-26T18:22:33.599Z,99949.77
2022-07-26T18:25:01.334Z,99950.49
2022-07-26T18:27:29.075Z,99949.40
2022-07-26T18:29:58.570Z,99951.59
2022-07-26T18:32:26.515Z,99955.02
2022-07-26T18:34:55.711Z,99956.99
2022-07-26T18:37:23.262Z,99963.22
2022-07-26T18:39:57.002Z,99961.65
2022-07-26T18:42:25.511Z,99963.73
2022-07-26T18:44:53.197Z,99966.27
2022-07-26T18:47:21.417Z,99969.89
2022-07-26T18:49:49.019Z,99970.89
2022-07-26T18:52:28.526Z,99974.68
2022-07-26T18:55:06.420Z,99974.17
2022-07-26T18:57:35.054Z,99975.50
2022-07-26T19:00:03.262Z,99979.10
2022-07-26T19:02:32.114Z,99983.13
2022-07-26T19:05:00.008Z,99985.53
2022-07-26T19:07:27.652Z,99983.73
2022-07-26T19:09:58.540Z,99986.58
2022-07-26T19:12:27.190Z,99994.02
2022-07-26T19:14:55.246Z,99996.10
2022-07-26T19:17:23.137Z,100001.35
2022-07-26T19:19:50.723Z,100010.27
2022-07-26T19:22:19.429Z,100021.41
2022-07-26T19:24:48.503Z,100028.74
2022-07-26T19:27:16.839Z,100034.52
2022-07-26T19:29:45.095Z,100039.80
2022-07-26T19:32:12.726Z,100040.14
2022-07-26T19:34:40.657Z,100045.70
2022-07-26T19:37:08.347Z,100050.33
2022-07-26T19:39:35.961Z,100057.27
2022-07-26T19:42:03.810Z,100055.57
2022-07-26T19:44:31.663Z,100055.38
2022-07-26T19:46:59.749Z,100062.95
2022-07-26T19:49:28.157Z,100062.14
2022-07-26T19:51:59.156Z,100064.93
2022-07-26T19:54:30.024Z,100061.85
2022-07-26T19:56:58.256Z,100063.33
2022-07-26T19:59:25.932Z,100068.30
2022-07-26T20:01:54.599Z,100066.50
2022-07-26T20:04:24.610Z,100070.02
2022-07-26T20:06:52.201Z,100071.45
2022-07-26T20:09:19.814Z,100072.45
2022-07-26T20:11:50.207Z,100074.52
2022-07-26T20:14:18.010Z,100078.32
2022-07-26T20:16:45.764Z,100076.61
2022-07-26T20:19:13.768Z,100078.94
2022-07-26T20:21:44.117Z,100078.00
2022-07-26T20:24:11.802Z,100076.98
2022-07-26T20:26:39.339Z,100080.59
2022-07-26T20:29:07.742Z,100082.72
2022-07-26T20:31:35.984Z,100087.61
2022-07-26T20:34:03.625Z,100090.08
2022-07-26T20:36:31.677Z,100088.84
2022-07-26T20:39:00.226Z,100089.02
2022-07-26T20:41:28.067Z,100093.63
2022-07-26T20:44:01.464Z,100097.56
2022-07-26T20:46:29.214Z,100101.92
2022-07-26T20:48:56.914Z,100102.30
2022-07-26T20:51:25.102Z,100106.73
2022-07-26T20:53:52.626Z,100115.80
2022-07-26T20:56:20.550Z,100113.52
2022-07-26T20:58:48.213Z,100114.94
2022-07-26T21:01:15.780Z,100118.67
2022-07-26T21:03:43.587Z,100116.93
2022-07-26T21:06:11.088Z,100117.21
2022-07-26T21:08:38.575Z,100122.84
2022-07-26T21:11:06.193Z,100124.13
2022-07-26T21:13:33.719Z,100129.61
2022-07-26T21:16:01.530Z,100134.77
2022-07-26T21:18:30.699Z,100134.50
2022-07-26T21:20:58.623Z,100135.38
2022-07-26T21:23:26.228Z,100142.05
2022-07-26T21:26:00.533Z,100149.80
2022-07-26T21:28:28.545Z,100148.64
2022-07-26T21:30:56.251Z,100146.98
2022-07-26T21:33:23.924Z,100147.67
2022-07-26T21:35:51.759Z,100146.82
2022-07-26T21:38:19.441Z,100150.11
2022-07-26T21:40:47.287Z,100151.89
2022-07-26T21:43:14.948Z,100154.24
2022-07-26T21:45:42.606Z,100156.27
2022-07-26T21:48:10.209Z,100163.59
2022-07-26T21:50:37.753Z,100167.34
2022-07-26T21:53:05.303Z,100162.84
2022-07-26T21:55:32.914Z,100161.48
2022-07-26T21:58:00.503Z,100159.51
2022-07-26T22:00:28.007Z,100162.27
2022-07-26T22:02:55.773Z,100167.34
2022-07-26T22:05:37.391Z,100171.59
2022-07-26T22:08:06.977Z,100173.19
2022-07-26T22:10:34.748Z,100175.32
2022-07-26T22:13:04.201Z,100179.62
2022-07-26T22:15:32.971Z,100181.02
2022-07-26T22:18:01.183Z,100181.09
2022-07-26T22:20:30.831Z,100181.75
2022-07-26T22:23:03.862Z,100183.66
2022-07-26T22:25:33.664Z,100183.58
2022-07-26T22:28:02.469Z,100180.99
2022-07-26T22:30:30.435Z,100180.86
2022-07-26T22:32:58.904Z,100185.09
2022-07-26T22:35:32.259Z,100189.16
2022-07-26T22:38:05.033Z,100190.30
2022-07-26T22:40:32.938Z,100188.31
2022-07-26T22:43:00.695Z,100190.91
2022-07-26T22:45:29.739Z,100190.45
2022-07-26T22:47:58.000Z,100188.88
2022-07-26T22:50:25.777Z,100189.96
2022-07-26T22:52:53.527Z,100189.30
2022-07-26T22:55:21.494Z,100192.84
2022-07-26T22:57:49.122Z,100198.00
2022-07-26T23:00:19.146Z,100199.69
2022-07-26T23:02:47.797Z,100197.05
2022-07-26T23:05:16.641Z,100196.67
2022-07-26T23:07:47.158Z,100194.98
2022-07-26T23:10:16.828Z,100195.41
2022-07-26T23:12:44.723Z,100199.07
2022-07-26T23:15:12.790Z,100202.44
2022-07-26T23:17:40.448Z,100201.81
2022-07-26T23:20:10.530Z,100203.61
2022-07-26T23:22:41.119Z,100203.07
2022-07-26T23:25:09.929Z,100201.77
2022-07-26T23:27:37.561Z,100189.91
2022-07-26T23:30:06.730Z,100182.50
2022-07-26T23:32:34.249Z,100188.44
2022-07-26T23:35:01.902Z,100196.14
2022-07-26T23:37:29.496Z,100193.70
2022-07-26T23:39:57.177Z,100191.08
2022-07-26T23:42:24.679Z,100197.30
2022-07-26T23:44:52.184Z,100203.65
2022-07-26T23:47:19.698Z,100201.84
2022-07-26T23:49:47.384Z,100202.83
2022-07-26T23:52:14.919Z,100202.55
2022-07-26T23:54:42.455Z,100204.61
2022-07-26T23:57:10.269Z,100203.85
2022-07-26T23:59:37.964Z,100200.87
